Terminal Aerodrome Forecast
Issued by NWS Wilmington, OH

Home | Current Version | Previous Version | Text Only | Print | Product List | Glossary On
Versions: 1 2 3 4 5 6 7 8 9 10 11 12 13 14 15 16 17 18 19 20 21 22 23
130
FTUS41 KILN 261740
TAFDAY
TAF
KDAY 261740Z 2618/2718 21008KT P6SM SKC
     FM262300 20006KT P6SM SCT120 BKN200
     FM270300 20007KT P6SM BKN070
     FM271100 17005KT P6SM OVC040
     FM271400 18007KT P6SM VCSH OVC020=

USA.gov is the U.S. government's official web portal to all federal, state and local government web resources and services.